sensor_id;sensor_type;location;lat;lon;timestamp;P1;durP1;ratioP1;P2;durP2;ratioP2
15254;SDS011;7730;49.610;11.136;2023-02-11T00:00:43;38.97;;;31.40;;
15254;SDS011;7730;49.610;11.136;2023-02-11T00:03:10;38.60;;;31.33;;
15254;SDS011;7730;49.610;11.136;2023-02-11T00:05:37;38.17;;;31.37;;
15254;SDS011;7730;49.610;11.136;2023-02-11T00:08:04;36.83;;;30.00;;
15254;SDS011;7730;49.610;11.136;2023-02-11T00:10:32;38.40;;;30.43;;
15254;SDS011;7730;49.610;11.136;2023-02-11T00:12:59;37.83;;;31.57;;
15254;SDS011;7730;49.610;11.136;2023-02-11T00:15:26;37.80;;;31.50;;
15254;SDS011;7730;49.610;11.136;2023-02-11T00:17:53;38.33;;;30.93;;
15254;SDS011;7730;49.610;11.136;2023-02-11T00:20:20;38.40;;;30.53;;
15254;SDS011;7730;49.610;11.136;2023-02-11T00:22:47;36.87;;;30.13;;
15254;SDS011;7730;49.610;11.136;2023-02-11T00:25:14;35.90;;;29.77;;
15254;SDS011;7730;49.610;11.136;2023-02-11T00:27:42;35.00;;;28.73;;
15254;SDS011;7730;49.610;11.136;2023-02-11T00:30:10;36.03;;;28.87;;
15254;SDS011;7730;49.610;11.136;2023-02-11T00:32:37;36.77;;;29.67;;
15254;SDS011;7730;49.610;11.136;2023-02-11T00:35:06;35.93;;;29.43;;
15254;SDS011;7730;49.610;11.136;2023-02-11T00:37:33;34.97;;;28.90;;
15254;SDS011;7730;49.610;11.136;2023-02-11T00:40:01;35.37;;;28.07;;
15254;SDS011;7730;49.610;11.136;2023-02-11T00:42:28;37.57;;;29.67;;
15254;SDS011;7730;49.610;11.136;2023-02-11T00:44:56;36.57;;;28.97;;
15254;SDS011;7730;49.610;11.136;2023-02-11T00:47:23;36.17;;;28.57;;
15254;SDS011;7730;49.610;11.136;2023-02-11T00:49:50;36.23;;;28.63;;
15254;SDS011;7730;49.610;11.136;2023-02-11T00:52:17;36.33;;;28.97;;
15254;SDS011;7730;49.610;11.136;2023-02-11T00:54:44;35.27;;;28.13;;
15254;SDS011;7730;49.610;11.136;2023-02-11T00:57:11;34.77;;;28.17;;
15254;SDS011;7730;49.610;11.136;2023-02-11T00:59:38;35.93;;;29.13;;
15254;SDS011;7730;49.610;11.136;2023-02-11T01:02:06;35.83;;;28.27;;
15254;SDS011;7730;49.610;11.136;2023-02-11T01:04:33;34.53;;;28.50;;
15254;SDS011;7730;49.610;11.136;2023-02-11T01:07:00;35.40;;;28.37;;
15254;SDS011;7730;49.610;11.136;2023-02-11T01:09:27;35.10;;;28.77;;
15254;SDS011;7730;49.610;11.136;2023-02-11T01:11:54;37.00;;;27.73;;
15254;SDS011;7730;49.610;11.136;2023-02-11T01:14:21;35.80;;;28.57;;
15254;SDS011;7730;49.610;11.136;2023-02-11T01:16:48;35.60;;;28.43;;
15254;SDS011;7730;49.610;11.136;2023-02-11T01:19:17;35.07;;;27.90;;
15254;SDS011;7730;49.610;11.136;2023-02-11T01:21:44;35.53;;;28.27;;
15254;SDS011;7730;49.610;11.136;2023-02-11T01:24:10;35.40;;;28.17;;
15254;SDS011;7730;49.610;11.136;2023-02-11T01:26:37;37.27;;;28.10;;
15254;SDS011;7730;49.610;11.136;2023-02-11T01:29:04;35.10;;;28.50;;
15254;SDS011;7730;49.610;11.136;2023-02-11T01:31:33;35.73;;;28.10;;
15254;SDS011;7730;49.610;11.136;2023-02-11T01:34:00;36.13;;;28.73;;
15254;SDS011;7730;49.610;11.136;2023-02-11T01:36:28;36.83;;;28.53;;
15254;SDS011;7730;49.610;11.136;2023-02-11T01:38:55;36.33;;;28.53;;
15254;SDS011;7730;49.610;11.136;2023-02-11T01:41:22;33.93;;;27.77;;
15254;SDS011;7730;49.610;11.136;2023-02-11T01:43:49;35.60;;;28.03;;
15254;SDS011;7730;49.610;11.136;2023-02-11T01:46:19;33.20;;;27.17;;
15254;SDS011;7730;49.610;11.136;2023-02-11T01:48:47;34.30;;;27.87;;
15254;SDS011;7730;49.610;11.136;2023-02-11T01:51:17;34.13;;;27.70;;
15254;SDS011;7730;49.610;11.136;2023-02-11T01:53:46;34.90;;;27.90;;
15254;SDS011;7730;49.610;11.136;2023-02-11T01:56:31;36.13;;;28.00;;
15254;SDS011;7730;49.610;11.136;2023-02-11T01:59:17;33.67;;;26.70;;
15254;SDS011;7730;49.610;11.136;2023-02-11T02:01:46;36.13;;;28.30;;
15254;SDS011;7730;49.610;11.136;2023-02-11T02:04:16;34.30;;;26.73;;
15254;SDS011;7730;49.610;11.136;2023-02-11T02:06:45;36.63;;;28.33;;
15254;SDS011;7730;49.610;11.136;2023-02-11T02:09:16;36.00;;;27.33;;
15254;SDS011;7730;49.610;11.136;2023-02-11T02:11:46;35.20;;;27.30;;
15254;SDS011;7730;49.610;11.136;2023-02-11T02:14:13;33.17;;;27.40;;
15254;SDS011;7730;49.610;11.136;2023-02-11T02:16:40;33.10;;;25.17;;
15254;SDS011;7730;49.610;11.136;2023-02-11T02:19:17;32.13;;;26.30;;
15254;SDS011;7730;49.610;11.136;2023-02-11T02:21:55;32.73;;;25.70;;
15254;SDS011;7730;49.610;11.136;2023-02-11T02:24:45;32.20;;;25.20;;
15254;SDS011;7730;49.610;11.136;2023-02-11T02:30:05;33.23;;;25.33;;
15254;SDS011;7730;49.610;11.136;2023-02-11T02:32:49;32.57;;;25.40;;
15254;SDS011;7730;49.610;11.136;2023-02-11T02:35:21;31.73;;;25.20;;
15254;SDS011;7730;49.610;11.136;2023-02-11T02:37:50;32.03;;;24.97;;
15254;SDS011;7730;49.610;11.136;2023-02-11T02:40:22;31.73;;;24.53;;
15254;SDS011;7730;49.610;11.136;2023-02-11T02:42:50;32.77;;;24.90;;
15254;SDS011;7730;49.610;11.136;2023-02-11T02:45:18;30.83;;;24.43;;
15254;SDS011;7730;49.610;11.136;2023-02-11T02:47:45;30.73;;;23.93;;
15254;SDS011;7730;49.610;11.136;2023-02-11T02:50:14;32.00;;;24.50;;
15254;SDS011;7730;49.610;11.136;2023-02-11T02:52:45;31.67;;;24.63;;
15254;SDS011;7730;49.610;11.136;2023-02-11T02:55:26;31.63;;;24.63;;
15254;SDS011;7730;49.610;11.136;2023-02-11T02:58:01;31.53;;;24.63;;
15254;SDS011;7730;49.610;11.136;2023-02-11T03:00:30;30.37;;;24.13;;
15254;SDS011;7730;49.610;11.136;2023-02-11T03:03:04;31.03;;;24.13;;
15254;SDS011;7730;49.610;11.136;2023-02-11T03:05:37;32.50;;;25.17;;
15254;SDS011;7730;49.610;11.136;2023-02-11T03:08:10;32.03;;;24.20;;
15254;SDS011;7730;49.610;11.136;2023-02-11T03:10:39;30.27;;;23.90;;
15254;SDS011;7730;49.610;11.136;2023-02-11T03:13:07;30.80;;;24.27;;
15254;SDS011;7730;49.610;11.136;2023-02-11T03:15:36;30.53;;;23.73;;
15254;SDS011;7730;49.610;11.136;2023-02-11T03:18:04;31.37;;;24.23;;
15254;SDS011;7730;49.610;11.136;2023-02-11T03:20:32;31.40;;;24.50;;
15254;SDS011;7730;49.610;11.136;2023-02-11T03:23:05;31.37;;;23.60;;
15254;SDS011;7730;49.610;11.136;2023-02-11T03:25:34;33.27;;;25.07;;
15254;SDS011;7730;49.610;11.136;2023-02-11T03:28:04;30.87;;;23.97;;
15254;SDS011;7730;49.610;11.136;2023-02-11T03:30:33;30.90;;;24.00;;
15254;SDS011;7730;49.610;11.136;2023-02-11T03:33:05;31.80;;;24.13;;
15254;SDS011;7730;49.610;11.136;2023-02-11T03:35:35;32.17;;;23.60;;
15254;SDS011;7730;49.610;11.136;2023-02-11T03:38:06;30.43;;;23.80;;
15254;SDS011;7730;49.610;11.136;2023-02-11T03:40:35;31.60;;;24.30;;
15254;SDS011;7730;49.610;11.136;2023-02-11T03:43:04;32.07;;;23.70;;
15254;SDS011;7730;49.610;11.136;2023-02-11T03:45:32;30.73;;;23.07;;
15254;SDS011;7730;49.610;11.136;2023-02-11T03:48:05;29.77;;;23.00;;
15254;SDS011;7730;49.610;11.136;2023-02-11T03:50:32;30.40;;;22.20;;
15254;SDS011;7730;49.610;11.136;2023-02-11T03:53:01;31.10;;;23.10;;
15254;SDS011;7730;49.610;11.136;2023-02-11T03:55:30;29.17;;;23.00;;
15254;SDS011;7730;49.610;11.136;2023-02-11T03:57:59;28.33;;;22.10;;
15254;SDS011;7730;49.610;11.136;2023-02-11T04:00:28;30.30;;;22.37;;
15254;SDS011;7730;49.610;11.136;2023-02-11T04:02:55;31.00;;;23.73;;
15254;SDS011;7730;49.610;11.136;2023-02-11T04:05:22;29.80;;;23.00;;
15254;SDS011;7730;49.610;11.136;2023-02-11T04:07:49;31.07;;;23.30;;
15254;SDS011;7730;49.610;11.136;2023-02-11T04:10:16;31.50;;;24.10;;
15254;SDS011;7730;49.610;11.136;2023-02-11T04:12:45;30.13;;;23.67;;
15254;SDS011;7730;49.610;11.136;2023-02-11T04:15:12;30.17;;;23.20;;
15254;SDS011;7730;49.610;11.136;2023-02-11T04:17:39;29.60;;;22.50;;
15254;SDS011;7730;49.610;11.136;2023-02-11T04:20:06;29.50;;;21.97;;
15254;SDS011;7730;49.610;11.136;2023-02-11T04:22:33;29.97;;;22.00;;
15254;SDS011;7730;49.610;11.136;2023-02-11T04:25:00;29.77;;;22.70;;
15254;SDS011;7730;49.610;11.136;2023-02-11T04:27:27;29.60;;;22.70;;
15254;SDS011;7730;49.610;11.136;2023-02-11T04:29:56;28.90;;;22.03;;
15254;SDS011;7730;49.610;11.136;2023-02-11T04:32:23;30.83;;;22.73;;
15254;SDS011;7730;49.610;11.136;2023-02-11T04:34:50;31.40;;;22.93;;
15254;SDS011;7730;49.610;11.136;2023-02-11T04:37:18;29.53;;;22.27;;
15254;SDS011;7730;49.610;11.136;2023-02-11T04:39:45;30.07;;;22.53;;
15254;SDS011;7730;49.610;11.136;2023-02-11T04:42:12;31.07;;;22.23;;
15254;SDS011;7730;49.610;11.136;2023-02-11T04:44:39;29.27;;;21.73;;
15254;SDS011;7730;49.610;11.136;2023-02-11T04:47:07;28.27;;;20.73;;
15254;SDS011;7730;49.610;11.136;2023-02-11T04:49:36;29.87;;;21.60;;
15254;SDS011;7730;49.610;11.136;2023-02-11T04:52:03;29.20;;;21.00;;
15254;SDS011;7730;49.610;11.136;2023-02-11T04:54:30;29.13;;;21.20;;
15254;SDS011;7730;49.610;11.136;2023-02-11T04:56:57;28.53;;;20.93;;
15254;SDS011;7730;49.610;11.136;2023-02-11T04:59:24;30.13;;;20.80;;
15254;SDS011;7730;49.610;11.136;2023-02-11T05:01:51;30.40;;;20.57;;
15254;SDS011;7730;49.610;11.136;2023-02-11T05:04:19;28.07;;;21.43;;
15254;SDS011;7730;49.610;11.136;2023-02-11T05:06:47;29.80;;;21.37;;
15254;SDS011;7730;49.610;11.136;2023-02-11T05:09:14;28.80;;;21.77;;
15254;SDS011;7730;49.610;11.136;2023-02-11T05:11:41;27.23;;;20.60;;
15254;SDS011;7730;49.610;11.136;2023-02-11T05:14:08;28.87;;;20.53;;
15254;SDS011;7730;49.610;11.136;2023-02-11T05:16:35;29.57;;;21.07;;
15254;SDS011;7730;49.610;11.136;2023-02-11T05:19:02;29.07;;;21.23;;
15254;SDS011;7730;49.610;11.136;2023-02-11T05:21:31;28.47;;;21.10;;
15254;SDS011;7730;49.610;11.136;2023-02-11T05:23:58;28.10;;;20.90;;
15254;SDS011;7730;49.610;11.136;2023-02-11T05:26:25;31.07;;;21.00;;
15254;SDS011;7730;49.610;11.136;2023-02-11T05:28:52;28.10;;;23.13;;
15254;SDS011;7730;49.610;11.136;2023-02-11T05:31:19;27.80;;;21.17;;
15254;SDS011;7730;49.610;11.136;2023-02-11T05:33:46;30.13;;;21.23;;
15254;SDS011;7730;49.610;11.136;2023-02-11T05:36:13;27.30;;;19.83;;
15254;SDS011;7730;49.610;11.136;2023-02-11T05:38:42;26.27;;;19.00;;
15254;SDS011;7730;49.610;11.136;2023-02-11T05:41:09;27.93;;;19.53;;
15254;SDS011;7730;49.610;11.136;2023-02-11T05:43:36;27.83;;;20.37;;
15254;SDS011;7730;49.610;11.136;2023-02-11T05:46:03;27.10;;;20.37;;
15254;SDS011;7730;49.610;11.136;2023-02-11T05:48:31;27.40;;;19.90;;
15254;SDS011;7730;49.610;11.136;2023-02-11T05:50:58;27.20;;;19.93;;
15254;SDS011;7730;49.610;11.136;2023-02-11T05:53:25;26.83;;;19.90;;
15254;SDS011;7730;49.610;11.136;2023-02-11T05:55:53;26.97;;;19.77;;
15254;SDS011;7730;49.610;11.136;2023-02-11T05:58:20;28.03;;;19.70;;
15254;SDS011;7730;49.610;11.136;2023-02-11T06:00:47;27.00;;;18.90;;
15254;SDS011;7730;49.610;11.136;2023-02-11T06:03:14;26.83;;;19.67;;
15254;SDS011;7730;49.610;11.136;2023-02-11T06:05:41;26.17;;;18.57;;
15254;SDS011;7730;49.610;11.136;2023-02-11T06:08:08;25.67;;;18.90;;
15254;SDS011;7730;49.610;11.136;2023-02-11T06:10:35;26.67;;;19.23;;
15254;SDS011;7730;49.610;11.136;2023-02-11T06:13:03;24.70;;;18.10;;
15254;SDS011;7730;49.610;11.136;2023-02-11T06:15:30;26.07;;;18.40;;
15254;SDS011;7730;49.610;11.136;2023-02-11T06:17:57;27.17;;;19.13;;
15254;SDS011;7730;49.610;11.136;2023-02-11T06:20:24;26.63;;;18.83;;
15254;SDS011;7730;49.610;11.136;2023-02-11T06:22:51;25.73;;;18.93;;
15254;SDS011;7730;49.610;11.136;2023-02-11T06:25:18;26.47;;;19.40;;
15254;SDS011;7730;49.610;11.136;2023-02-11T06:27:45;26.30;;;18.90;;
15254;SDS011;7730;49.610;11.136;2023-02-11T06:30:14;24.83;;;18.23;;
15254;SDS011;7730;49.610;11.136;2023-02-11T06:32:41;26.17;;;18.17;;
15254;SDS011;7730;49.610;11.136;2023-02-11T06:35:08;25.30;;;18.17;;
15254;SDS011;7730;49.610;11.136;2023-02-11T06:37:35;25.73;;;18.60;;
15254;SDS011;7730;49.610;11.136;2023-02-11T06:40:02;25.87;;;19.40;;
15254;SDS011;7730;49.610;11.136;2023-02-11T06:42:29;26.27;;;19.37;;
15254;SDS011;7730;49.610;11.136;2023-02-11T06:44:56;25.77;;;19.20;;
15254;SDS011;7730;49.610;11.136;2023-02-11T06:47:24;27.30;;;19.27;;
15254;SDS011;7730;49.610;11.136;2023-02-11T06:49:51;27.00;;;19.57;;
15254;SDS011;7730;49.610;11.136;2023-02-11T06:52:18;26.37;;;20.00;;
15254;SDS011;7730;49.610;11.136;2023-02-11T06:54:45;27.37;;;20.23;;
15254;SDS011;7730;49.610;11.136;2023-02-11T06:57:12;26.23;;;19.07;;
15254;SDS011;7730;49.610;11.136;2023-02-11T06:59:39;25.43;;;19.33;;
15254;SDS011;7730;49.610;11.136;2023-02-11T07:02:07;30.37;;;20.20;;
15254;SDS011;7730;49.610;11.136;2023-02-11T07:04:36;30.90;;;21.00;;
15254;SDS011;7730;49.610;11.136;2023-02-11T07:07:03;33.27;;;20.33;;
15254;SDS011;7730;49.610;11.136;2023-02-11T07:09:30;41.70;;;21.67;;
15254;SDS011;7730;49.610;11.136;2023-02-11T07:11:57;35.50;;;21.03;;
15254;SDS011;7730;49.610;11.136;2023-02-11T07:14:24;34.47;;;21.77;;
15254;SDS011;7730;49.610;11.136;2023-02-11T07:16:51;31.83;;;20.57;;
15254;SDS011;7730;49.610;11.136;2023-02-11T07:19:18;37.47;;;21.70;;
15254;SDS011;7730;49.610;11.136;2023-02-11T07:21:46;32.23;;;20.10;;
15254;SDS011;7730;49.610;11.136;2023-02-11T07:24:13;30.73;;;21.10;;
15254;SDS011;7730;49.610;11.136;2023-02-11T07:26:40;39.57;;;24.27;;
15254;SDS011;7730;49.610;11.136;2023-02-11T07:29:08;44.40;;;25.50;;
15254;SDS011;7730;49.610;11.136;2023-02-11T07:31:35;36.80;;;22.60;;
15254;SDS011;7730;49.610;11.136;2023-02-11T07:34:02;34.23;;;22.00;;
15254;SDS011;7730;49.610;11.136;2023-02-11T07:36:29;28.03;;;19.27;;
15254;SDS011;7730;49.610;11.136;2023-02-11T07:38:58;25.37;;;19.23;;
15254;SDS011;7730;49.610;11.136;2023-02-11T07:41:25;27.00;;;19.13;;
15254;SDS011;7730;49.610;11.136;2023-02-11T07:43:52;27.07;;;19.03;;
15254;SDS011;7730;49.610;11.136;2023-02-11T07:46:20;26.40;;;18.93;;
15254;SDS011;7730;49.610;11.136;2023-02-11T07:48:47;25.67;;;18.83;;
15254;SDS011;7730;49.610;11.136;2023-02-11T07:51:15;25.60;;;18.23;;
15254;SDS011;7730;49.610;11.136;2023-02-11T07:53:43;25.17;;;17.77;;
15254;SDS011;7730;49.610;11.136;2023-02-11T07:56:12;26.83;;;18.67;;
15254;SDS011;7730;49.610;11.136;2023-02-11T07:58:39;25.73;;;17.70;;
15254;SDS011;7730;49.610;11.136;2023-02-11T08:01:08;27.70;;;18.70;;
15254;SDS011;7730;49.610;11.136;2023-02-11T08:03:36;31.73;;;19.10;;
15254;SDS011;7730;49.610;11.136;2023-02-11T08:06:03;36.70;;;22.07;;
15254;SDS011;7730;49.610;11.136;2023-02-11T08:08:30;29.37;;;20.20;;
15254;SDS011;7730;49.610;11.136;2023-02-11T08:10:57;32.30;;;20.90;;
15254;SDS011;7730;49.610;11.136;2023-02-11T08:13:25;37.03;;;26.30;;
15254;SDS011;7730;49.610;11.136;2023-02-11T08:15:52;37.93;;;26.50;;
15254;SDS011;7730;49.610;11.136;2023-02-11T08:18:23;37.00;;;26.57;;
15254;SDS011;7730;49.610;11.136;2023-02-11T08:20:50;34.87;;;24.40;;
15254;SDS011;7730;49.610;11.136;2023-02-11T08:23:17;35.37;;;25.07;;
15254;SDS011;7730;49.610;11.136;2023-02-11T08:25:44;32.03;;;22.57;;
15254;SDS011;7730;49.610;11.136;2023-02-11T08:28:11;27.43;;;19.40;;
15254;SDS011;7730;49.610;11.136;2023-02-11T08:30:39;25.47;;;17.90;;
15254;SDS011;7730;49.610;11.136;2023-02-11T08:33:06;25.73;;;18.10;;
15254;SDS011;7730;49.610;11.136;2023-02-11T08:35:33;26.10;;;19.13;;
15254;SDS011;7730;49.610;11.136;2023-02-11T08:38:01;26.53;;;19.20;;
15254;SDS011;7730;49.610;11.136;2023-02-11T08:40:28;26.40;;;19.37;;
15254;SDS011;7730;49.610;11.136;2023-02-11T08:42:55;26.90;;;18.83;;
15254;SDS011;7730;49.610;11.136;2023-02-11T08:45:22;26.27;;;18.80;;
15254;SDS011;7730;49.610;11.136;2023-02-11T08:47:50;25.57;;;17.67;;
15254;SDS011;7730;49.610;11.136;2023-02-11T08:50:17;24.43;;;17.87;;
15254;SDS011;7730;49.610;11.136;2023-02-11T08:52:44;24.30;;;16.70;;
15254;SDS011;7730;49.610;11.136;2023-02-11T08:55:11;25.73;;;17.63;;
15254;SDS011;7730;49.610;11.136;2023-02-11T08:57:38;26.67;;;17.93;;
15254;SDS011;7730;49.610;11.136;2023-02-11T09:00:06;27.17;;;19.20;;
15254;SDS011;7730;49.610;11.136;2023-02-11T09:02:35;25.20;;;18.63;;
15254;SDS011;7730;49.610;11.136;2023-02-11T09:05:03;25.27;;;17.17;;
15254;SDS011;7730;49.610;11.136;2023-02-11T09:07:30;23.63;;;16.30;;
15254;SDS011;7730;49.610;11.136;2023-02-11T09:09:57;24.67;;;17.10;;
15254;SDS011;7730;49.610;11.136;2023-02-11T09:12:24;23.37;;;15.90;;
15254;SDS011;7730;49.610;11.136;2023-02-11T09:14:51;25.27;;;16.70;;
15254;SDS011;7730;49.610;11.136;2023-02-11T09:17:18;23.50;;;16.93;;
15254;SDS011;7730;49.610;11.136;2023-02-11T09:19:45;23.13;;;16.10;;
15254;SDS011;7730;49.610;11.136;2023-02-11T09:22:14;22.93;;;15.97;;
15254;SDS011;7730;49.610;11.136;2023-02-11T09:24:41;23.60;;;15.97;;
15254;SDS011;7730;49.610;11.136;2023-02-11T09:27:08;23.23;;;15.83;;
15254;SDS011;7730;49.610;11.136;2023-02-11T09:29:35;23.50;;;16.23;;
15254;SDS011;7730;49.610;11.136;2023-02-11T09:32:02;23.87;;;16.30;;
15254;SDS011;7730;49.610;11.136;2023-02-11T09:34:29;22.63;;;16.10;;
15254;SDS011;7730;49.610;11.136;2023-02-11T09:36:56;22.40;;;16.23;;
15254;SDS011;7730;49.610;11.136;2023-02-11T09:39:24;22.90;;;15.97;;
15254;SDS011;7730;49.610;11.136;2023-02-11T09:42:07;24.23;;;16.10;;
15254;SDS011;7730;49.610;11.136;2023-02-11T09:44:37;23.23;;;15.43;;
15254;SDS011;7730;49.610;11.136;2023-02-11T09:47:05;24.33;;;16.30;;
15254;SDS011;7730;49.610;11.136;2023-02-11T09:49:34;23.50;;;16.10;;
15254;SDS011;7730;49.610;11.136;2023-02-11T09:52:05;22.40;;;16.00;;
15254;SDS011;7730;49.610;11.136;2023-02-11T09:54:36;23.17;;;16.53;;
15254;SDS011;7730;49.610;11.136;2023-02-11T09:57:06;23.00;;;15.57;;
15254;SDS011;7730;49.610;11.136;2023-02-11T09:59:34;22.93;;;15.77;;
15254;SDS011;7730;49.610;11.136;2023-02-11T10:02:03;22.10;;;15.07;;
15254;SDS011;7730;49.610;11.136;2023-02-11T10:04:43;22.67;;;15.50;;
15254;SDS011;7730;49.610;11.136;2023-02-11T10:07:16;22.87;;;15.33;;
15254;SDS011;7730;49.610;11.136;2023-02-11T10:09:48;22.63;;;15.07;;
15254;SDS011;7730;49.610;11.136;2023-02-11T10:12:23;23.40;;;15.30;;
15254;SDS011;7730;49.610;11.136;2023-02-11T10:15:06;26.13;;;17.37;;
15254;SDS011;7730;49.610;11.136;2023-02-11T10:17:36;28.83;;;17.13;;
15254;SDS011;7730;49.610;11.136;2023-02-11T10:20:13;25.03;;;17.57;;
15254;SDS011;7730;49.610;11.136;2023-02-11T10:22:42;24.07;;;17.00;;
15254;SDS011;7730;49.610;11.136;2023-02-11T10:25:16;23.97;;;16.73;;
15254;SDS011;7730;49.610;11.136;2023-02-11T10:27:44;23.50;;;15.67;;
15254;SDS011;7730;49.610;11.136;2023-02-11T10:32:43;24.47;;;16.87;;
15254;SDS011;7730;49.610;11.136;2023-02-11T10:35:13;26.27;;;16.67;;
15254;SDS011;7730;49.610;11.136;2023-02-11T10:37:41;24.60;;;17.13;;
15254;SDS011;7730;49.610;11.136;2023-02-11T10:40:11;23.37;;;15.93;;
15254;SDS011;7730;49.610;11.136;2023-02-11T10:42:40;22.03;;;15.67;;
15254;SDS011;7730;49.610;11.136;2023-02-11T10:45:14;25.30;;;15.80;;
15254;SDS011;7730;49.610;11.136;2023-02-11T10:47:43;48.93;;;18.87;;
15254;SDS011;7730;49.610;11.136;2023-02-11T10:50:17;30.83;;;15.77;;
15254;SDS011;7730;49.610;11.136;2023-02-11T10:52:44;24.77;;;16.37;;
15254;SDS011;7730;49.610;11.136;2023-02-11T10:55:14;25.10;;;17.20;;
15254;SDS011;7730;49.610;11.136;2023-02-11T10:57:50;26.60;;;18.07;;
15254;SDS011;7730;49.610;11.136;2023-02-11T11:00:19;25.53;;;16.93;;
15254;SDS011;7730;49.610;11.136;2023-02-11T11:02:52;23.97;;;16.07;;
15254;SDS011;7730;49.610;11.136;2023-02-11T11:05:22;24.77;;;16.47;;
15254;SDS011;7730;49.610;11.136;2023-02-11T11:07:53;24.23;;;15.60;;
15254;SDS011;7730;49.610;11.136;2023-02-11T11:13:11;24.20;;;15.13;;
15254;SDS011;7730;49.610;11.136;2023-02-11T11:15:48;22.43;;;14.63;;
15254;SDS011;7730;49.610;11.136;2023-02-11T11:18:31;22.33;;;14.27;;
15254;SDS011;7730;49.610;11.136;2023-02-11T11:20:59;22.43;;;15.20;;
15254;SDS011;7730;49.610;11.136;2023-02-11T11:23:26;22.43;;;15.03;;
15254;SDS011;7730;49.610;11.136;2023-02-11T11:25:59;22.30;;;15.03;;
15254;SDS011;7730;49.610;11.136;2023-02-11T11:28:29;21.77;;;14.50;;
15254;SDS011;7730;49.610;11.136;2023-02-11T11:30:57;22.43;;;15.17;;
15254;SDS011;7730;49.610;11.136;2023-02-11T11:33:26;21.20;;;14.37;;
15254;SDS011;7730;49.610;11.136;2023-02-11T11:35:58;21.93;;;15.03;;
15254;SDS011;7730;49.610;11.136;2023-02-11T11:38:26;22.80;;;14.83;;
15254;SDS011;7730;49.610;11.136;2023-02-11T11:43:40;22.40;;;14.33;;
15254;SDS011;7730;49.610;11.136;2023-02-11T11:46:21;22.60;;;15.07;;
15254;SDS011;7730;49.610;11.136;2023-02-11T11:48:49;23.30;;;14.50;;
15254;SDS011;7730;49.610;11.136;2023-02-11T11:51:17;22.60;;;14.67;;
15254;SDS011;7730;49.610;11.136;2023-02-11T11:53:46;23.70;;;14.43;;
15254;SDS011;7730;49.610;11.136;2023-02-11T11:56:15;24.77;;;15.73;;
15254;SDS011;7730;49.610;11.136;2023-02-11T11:58:44;22.73;;;14.93;;
15254;SDS011;7730;49.610;11.136;2023-02-11T12:01:14;24.47;;;16.63;;
15254;SDS011;7730;49.610;11.136;2023-02-11T12:06:38;25.13;;;15.70;;
15254;SDS011;7730;49.610;11.136;2023-02-11T12:09:08;24.43;;;15.10;;
15254;SDS011;7730;49.610;11.136;2023-02-11T12:11:45;22.27;;;14.53;;
15254;SDS011;7730;49.610;11.136;2023-02-11T12:14:17;21.77;;;14.53;;
15254;SDS011;7730;49.610;11.136;2023-02-11T12:16:50;22.60;;;14.63;;
15254;SDS011;7730;49.610;11.136;2023-02-11T12:22:02;22.40;;;14.57;;
15254;SDS011;7730;49.610;11.136;2023-02-11T12:24:37;25.10;;;15.30;;
15254;SDS011;7730;49.610;11.136;2023-02-11T12:27:07;24.30;;;16.00;;
15254;SDS011;7730;49.610;11.136;2023-02-11T12:29:41;22.57;;;14.77;;
15254;SDS011;7730;49.610;11.136;2023-02-11T12:32:16;23.00;;;15.37;;
15254;SDS011;7730;49.610;11.136;2023-02-11T12:35:07;23.57;;;15.50;;
15254;SDS011;7730;49.610;11.136;2023-02-11T12:37:41;23.30;;;14.70;;
15254;SDS011;7730;49.610;11.136;2023-02-11T12:40:12;22.17;;;15.07;;
15254;SDS011;7730;49.610;11.136;2023-02-11T12:42:46;22.37;;;15.10;;
15254;SDS011;7730;49.610;11.136;2023-02-11T12:45:39;23.53;;;15.17;;
15254;SDS011;7730;49.610;11.136;2023-02-11T12:48:19;23.30;;;14.73;;
15254;SDS011;7730;49.610;11.136;2023-02-11T12:50:53;25.93;;;16.10;;
15254;SDS011;7730;49.610;11.136;2023-02-11T12:53:26;23.27;;;15.27;;
15254;SDS011;7730;49.610;11.136;2023-02-11T12:55:57;24.10;;;15.23;;
15254;SDS011;7730;49.610;11.136;2023-02-11T12:58:26;24.17;;;15.30;;
15254;SDS011;7730;49.610;11.136;2023-02-11T13:00:56;24.57;;;15.60;;
15254;SDS011;7730;49.610;11.136;2023-02-11T13:03:27;22.43;;;15.33;;
15254;SDS011;7730;49.610;11.136;2023-02-11T13:05:57;25.27;;;16.07;;
15254;SDS011;7730;49.610;11.136;2023-02-11T13:08:26;23.37;;;15.30;;
15254;SDS011;7730;49.610;11.136;2023-02-11T13:10:55;23.80;;;15.50;;
15254;SDS011;7730;49.610;11.136;2023-02-11T13:13:24;24.77;;;16.53;;
15254;SDS011;7730;49.610;11.136;2023-02-11T13:15:53;23.93;;;16.97;;
15254;SDS011;7730;49.610;11.136;2023-02-11T13:18:31;23.77;;;16.07;;
15254;SDS011;7730;49.610;11.136;2023-02-11T13:21:18;25.07;;;15.70;;
15254;SDS011;7730;49.610;11.136;2023-02-11T13:23:49;21.70;;;15.10;;
15254;SDS011;7730;49.610;11.136;2023-02-11T13:26:18;23.90;;;15.37;;
15254;SDS011;7730;49.610;11.136;2023-02-11T13:28:47;22.83;;;15.20;;
15254;SDS011;7730;49.610;11.136;2023-02-11T13:31:17;22.47;;;15.43;;
15254;SDS011;7730;49.610;11.136;2023-02-11T13:33:46;24.20;;;14.93;;
15254;SDS011;7730;49.610;11.136;2023-02-11T13:36:23;22.07;;;15.10;;
15254;SDS011;7730;49.610;11.136;2023-02-11T13:38:51;23.00;;;14.90;;
15254;SDS011;7730;49.610;11.136;2023-02-11T13:41:21;21.43;;;14.47;;
15254;SDS011;7730;49.610;11.136;2023-02-11T13:43:56;24.03;;;15.37;;
15254;SDS011;7730;49.610;11.136;2023-02-11T13:46:23;23.73;;;15.80;;
15254;SDS011;7730;49.610;11.136;2023-02-11T13:48:52;23.43;;;14.97;;
15254;SDS011;7730;49.610;11.136;2023-02-11T13:51:32;24.63;;;15.50;;
15254;SDS011;7730;49.610;11.136;2023-02-11T13:54:00;23.67;;;15.47;;
15254;SDS011;7730;49.610;11.136;2023-02-11T13:56:29;23.37;;;15.33;;
15254;SDS011;7730;49.610;11.136;2023-02-11T13:58:57;24.13;;;15.60;;
15254;SDS011;7730;49.610;11.136;2023-02-11T14:01:40;21.90;;;15.13;;
15254;SDS011;7730;49.610;11.136;2023-02-11T14:04:20;26.03;;;16.00;;
15254;SDS011;7730;49.610;11.136;2023-02-11T14:07:23;25.43;;;16.33;;
15254;SDS011;7730;49.610;11.136;2023-02-11T14:13:04;22.87;;;14.63;;
15254;SDS011;7730;49.610;11.136;2023-02-11T14:15:37;24.17;;;16.53;;
15254;SDS011;7730;49.610;11.136;2023-02-11T14:20:47;24.37;;;15.33;;
15254;SDS011;7730;49.610;11.136;2023-02-11T14:23:22;23.07;;;15.63;;
15254;SDS011;7730;49.610;11.136;2023-02-11T14:26:03;24.00;;;14.83;;
15254;SDS011;7730;49.610;11.136;2023-02-11T14:28:34;22.80;;;15.37;;
15254;SDS011;7730;49.610;11.136;2023-02-11T14:31:03;22.70;;;15.23;;
15254;SDS011;7730;49.610;11.136;2023-02-11T14:33:46;24.10;;;15.07;;
15254;SDS011;7730;49.610;11.136;2023-02-11T14:36:27;24.93;;;15.87;;
15254;SDS011;7730;49.610;11.136;2023-02-11T14:39:00;23.20;;;16.03;;
15254;SDS011;7730;49.610;11.136;2023-02-11T14:41:32;22.33;;;14.50;;
15254;SDS011;7730;49.610;11.136;2023-02-11T14:44:02;22.53;;;15.03;;
15254;SDS011;7730;49.610;11.136;2023-02-11T14:46:30;21.07;;;14.17;;
15254;SDS011;7730;49.610;11.136;2023-02-11T14:48:58;23.50;;;15.40;;
15254;SDS011;7730;49.610;11.136;2023-02-11T14:51:28;23.53;;;16.03;;
15254;SDS011;7730;49.610;11.136;2023-02-11T14:53:57;23.07;;;15.27;;
15254;SDS011;7730;49.610;11.136;2023-02-11T14:56:26;25.47;;;15.67;;